createdAt,value
2023-03-15T00:00:55.703Z,79.80
2023-03-15T00:03:31.012Z,79.40
2023-03-15T00:06:06.608Z,79.20
2023-03-15T00:08:41.494Z,78.30
2023-03-15T00:11:17.049Z,78.20
2023-03-15T00:13:52.322Z,78.40
2023-03-15T00:16:27.914Z,78.30
2023-03-15T00:19:03.129Z,76.90
2023-03-15T00:21:39.773Z,76.60
2023-03-15T00:24:15.006Z,77.00
2023-03-15T00:26:50.096Z,77.20
2023-03-15T00:29:25.236Z,76.80
2023-03-15T00:32:00.286Z,75.50
2023-03-15T00:34:35.302Z,75.40
2023-03-15T00:37:11.500Z,75.60
2023-03-15T00:39:47.669Z,75.40
2023-03-15T00:42:27.776Z,75.70
2023-03-15T00:45:02.811Z,75.40
2023-03-15T00:47:37.814Z,75.70
2023-03-15T00:50:12.771Z,75.30
2023-03-15T00:52:47.923Z,75.10
2023-03-15T00:55:23.239Z,75.90
2023-03-15T00:57:58.128Z,74.50
2023-03-15T01:00:33.249Z,74.20
2023-03-15T01:03:08.405Z,74.00
2023-03-15T01:05:43.420Z,74.50
2023-03-15T01:08:18.424Z,74.60
2023-03-15T01:10:53.392Z,74.20
2023-03-15T01:13:30.268Z,73.50
2023-03-15T01:16:06.541Z,72.70
2023-03-15T01:18:42.082Z,72.10
2023-03-15T01:21:17.374Z,71.70
2023-03-15T01:23:55.935Z,72.10
2023-03-15T01:26:31.288Z,72.80
2023-03-15T01:29:06.996Z,72.60
2023-03-15T01:31:42.183Z,71.90
2023-03-15T01:34:17.232Z,71.60
2023-03-15T01:36:53.332Z,71.30
2023-03-15T01:39:31.986Z,70.70
2023-03-15T01:42:08.020Z,70.00
2023-03-15T01:45:00.829Z,69.60
2023-03-15T01:47:35.924Z,69.70
2023-03-15T01:50:12.483Z,69.90
2023-03-15T01:52:47.620Z,70.10
2023-03-15T01:55:26.838Z,70.80
2023-03-15T01:58:15.925Z,70.40
2023-03-15T02:00:54.527Z,70.40
2023-03-15T02:03:36.438Z,70.20
2023-03-15T02:06:18.143Z,70.70
2023-03-15T02:09:15.083Z,71.00
2023-03-15T02:11:50.365Z,70.80
2023-03-15T02:14:27.476Z,70.90
2023-03-15T02:17:02.846Z,70.90
2023-03-15T02:19:55.077Z,71.10
2023-03-15T02:22:57.149Z,71.30
2023-03-15T02:25:46.235Z,71.30
2023-03-15T02:28:22.043Z,71.20
2023-03-15T02:30:58.039Z,71.10
2023-03-15T02:33:47.466Z,70.30
2023-03-15T02:36:27.037Z,70.30
2023-03-15T02:39:03.362Z,70.50
2023-03-15T02:41:45.056Z,70.90
2023-03-15T02:44:28.217Z,70.60
2023-03-15T02:47:15.888Z,70.20
2023-03-15T02:49:53.781Z,70.00
2023-03-15T02:52:28.793Z,69.40
2023-03-15T02:55:04.176Z,69.30
2023-03-15T02:57:39.098Z,69.00
2023-03-15T03:00:15.747Z,68.10
2023-03-15T03:02:51.879Z,67.70
2023-03-15T03:05:27.209Z,67.30
2023-03-15T03:08:02.797Z,65.60
2023-03-15T03:10:37.865Z,65.50
2023-03-15T03:13:13.022Z,64.20
2023-03-15T03:15:58.479Z,63.80
2023-03-15T03:18:35.955Z,62.90
2023-03-15T03:21:14.701Z,62.10
2023-03-15T03:23:51.281Z,60.80
2023-03-15T03:26:28.059Z,60.70
2023-03-15T03:29:05.614Z,59.80
2023-03-15T03:31:42.323Z,59.00
2023-03-15T03:34:17.424Z,59.20
2023-03-15T03:36:52.481Z,57.60
2023-03-15T03:39:37.541Z,59.50
2023-03-15T03:42:14.390Z,58.70
2023-03-15T03:44:50.667Z,58.30
2023-03-15T03:47:27.181Z,58.00
2023-03-15T03:50:03.491Z,58.30
2023-03-15T03:52:38.820Z,57.80
2023-03-15T03:55:17.591Z,57.80
2023-03-15T03:57:55.761Z,58.00
2023-03-15T04:00:44.220Z,57.70
2023-03-15T04:03:19.524Z,57.70
2023-03-15T04:05:59.572Z,57.50
2023-03-15T04:08:36.913Z,58.00
2023-03-15T04:11:12.228Z,57.80
2023-03-15T04:13:49.356Z,57.90
2023-03-15T04:16:24.873Z,57.60
2023-03-15T04:19:09.126Z,57.70
2023-03-15T04:21:47.284Z,57.80
2023-03-15T04:24:45.698Z,57.60
2023-03-15T04:27:58.655Z,58.00
2023-03-15T04:31:00.259Z,57.80
2023-03-15T04:33:56.682Z,57.90
2023-03-15T04:36:54.651Z,58.00
2023-03-15T04:39:49.408Z,57.90
2023-03-15T04:42:43.915Z,57.50
2023-03-15T04:45:42.734Z,57.60
2023-03-15T04:48:44.173Z,57.40
2023-03-15T04:51:27.962Z,57.20
2023-03-15T04:54:19.911Z,57.30
2023-03-15T04:57:10.721Z,57.20
2023-03-15T04:59:54.773Z,57.50
2023-03-15T05:02:52.124Z,57.60
2023-03-15T05:05:46.455Z,57.60
2023-03-15T05:08:39.279Z,57.00
2023-03-15T05:11:29.792Z,57.20
2023-03-15T05:14:15.436Z,57.20
2023-03-15T05:17:15.421Z,56.90
2023-03-15T05:19:51.653Z,56.50
2023-03-15T05:22:47.162Z,54.70
2023-03-15T05:25:38.633Z,54.80
2023-03-15T05:28:33.788Z,53.40
2023-03-15T05:31:19.759Z,53.40
2023-03-15T05:34:15.698Z,53.30
2023-03-15T05:37:09.479Z,53.40
2023-03-15T05:39:56.888Z,51.80
2023-03-15T05:42:58.303Z,52.10
2023-03-15T05:45:44.678Z,51.10
2023-03-15T05:48:45.404Z,50.30
2023-03-15T05:51:26.682Z,50.40
2023-03-15T05:54:16.446Z,50.50
2023-03-15T05:57:08.682Z,50.30
2023-03-15T06:00:08.910Z,50.10
2023-03-15T06:02:49.383Z,50.10
2023-03-15T06:05:42.582Z,50.00
2023-03-15T06:08:22.942Z,49.90
2023-03-15T06:11:01.739Z,49.20
2023-03-15T06:13:38.395Z,49.10
2023-03-15T06:16:21.002Z,48.90
2023-03-15T06:19:00.108Z,49.00
2023-03-15T06:21:35.185Z,48.30
2023-03-15T06:24:17.556Z,48.20
2023-03-15T06:26:54.821Z,47.90
2023-03-15T06:29:30.679Z,47.90
2023-03-15T06:32:07.513Z,47.70
2023-03-15T06:34:45.123Z,47.40
2023-03-15T06:37:34.234Z,47.30
2023-03-15T06:40:11.829Z,47.50
2023-03-15T06:42:47.147Z,47.20
2023-03-15T06:45:24.846Z,47.70
2023-03-15T06:48:00.691Z,46.90
2023-03-15T06:50:46.426Z,47.10
2023-03-15T06:53:22.380Z,46.90
2023-03-15T06:55:57.419Z,46.40
2023-03-15T06:58:32.304Z,45.70
2023-03-15T07:01:07.296Z,45.60
2023-03-15T07:03:42.704Z,45.20
2023-03-15T07:06:17.796Z,44.80
2023-03-15T07:08:52.679Z,44.30
2023-03-15T07:11:27.853Z,44.20
2023-03-15T07:14:02.804Z,43.50
2023-03-15T07:16:37.844Z,43.10
2023-03-15T07:19:12.725Z,42.20
2023-03-15T07:21:47.762Z,41.40
2023-03-15T07:24:22.792Z,40.30
2023-03-15T07:26:57.769Z,39.20
2023-03-15T07:29:32.717Z,38.20
2023-03-15T07:32:07.874Z,38.30
2023-03-15T07:34:43.136Z,37.70
2023-03-15T07:37:18.119Z,37.20
2023-03-15T07:39:52.975Z,37.00
2023-03-15T07:42:27.961Z,36.90
2023-03-15T07:45:07.905Z,36.80
2023-03-15T07:47:42.917Z,36.40
2023-03-15T07:50:17.883Z,35.60
2023-03-15T07:52:53.041Z,35.40
2023-03-15T07:55:27.946Z,35.80
2023-03-15T07:58:03.318Z,35.60
2023-03-15T08:00:38.194Z,35.80
2023-03-15T08:03:13.208Z,35.90
2023-03-15T08:05:48.234Z,36.00
2023-03-15T08:08:23.327Z,35.90
2023-03-15T08:10:59.420Z,36.20
2023-03-15T08:13:34.708Z,36.20
2023-03-15T08:16:09.692Z,36.30
2023-03-15T08:18:44.636Z,36.30
2023-03-15T08:21:19.601Z,36.10
2023-03-15T08:23:54.558Z,35.30
2023-03-15T08:26:29.483Z,35.00
2023-03-15T08:29:05.014Z,34.90
2023-03-15T08:31:40.345Z,34.60
2023-03-15T08:34:16.265Z,34.10
2023-03-15T08:36:51.413Z,33.90
2023-03-15T08:39:26.392Z,33.50
2023-03-15T08:42:01.360Z,33.10
2023-03-15T08:44:36.470Z,32.80
2023-03-15T08:47:11.768Z,33.10
2023-03-15T08:49:46.703Z,33.30
2023-03-15T08:52:22.245Z,32.90
2023-03-15T08:54:57.730Z,33.40
2023-03-15T08:57:33.211Z,33.30
2023-03-15T09:00:09.509Z,33.00
2023-03-15T09:02:44.687Z,32.40
2023-03-15T09:05:21.439Z,32.70
2023-03-15T09:07:56.488Z,32.10
2023-03-15T09:10:31.363Z,31.00
2023-03-15T09:13:06.476Z,30.60
2023-03-15T09:15:41.521Z,30.00
2023-03-15T09:18:16.512Z,29.00
2023-03-15T09:20:51.708Z,29.10
2023-03-15T09:23:26.703Z,29.50
2023-03-15T09:26:01.872Z,29.10
2023-03-15T09:28:36.717Z,29.30
2023-03-15T09:31:11.683Z,30.40
2023-03-15T09:33:46.813Z,29.50
2023-03-15T09:36:21.706Z,28.70
2023-03-15T09:38:57.100Z,28.90
2023-03-15T09:41:55.333Z,29.30
2023-03-15T09:44:48.091Z,29.30
2023-03-15T09:47:38.027Z,27.90
2023-03-15T09:50:31.185Z,27.40
2023-03-15T09:53:28.242Z,26.80
2023-03-15T09:56:03.432Z,26.40
2023-03-15T09:58:38.660Z,26.40
2023-03-15T10:01:15.213Z,26.20
2023-03-15T10:03:52.859Z,27.00
2023-03-15T10:06:36.492Z,27.30
2023-03-15T10:09:19.345Z,27.00
2023-03-15T10:12:04.796Z,27.40
2023-03-15T10:15:30.755Z,27.80
2023-03-15T10:18:29.861Z,27.40
2023-03-15T10:21:13.500Z,27.30
2023-03-15T10:23:55.651Z,27.50
2023-03-15T10:26:36.682Z,27.50
2023-03-15T10:29:17.793Z,27.60
2023-03-15T10:31:54.505Z,27.50
2023-03-15T10:34:30.094Z,27.20
2023-03-15T10:37:06.354Z,27.50
2023-03-15T10:39:46.764Z,27.50
2023-03-15T10:42:32.256Z,27.10
2023-03-15T10:45:23.446Z,26.70
2023-03-15T10:48:00.697Z,26.80
2023-03-15T10:50:40.548Z,26.70
2023-03-15T10:53:25.542Z,25.70
2023-03-15T10:56:13.490Z,25.90
2023-03-15T10:59:05.322Z,25.70
2023-03-15T11:01:48.789Z,25.90
2023-03-15T11:04:32.481Z,25.90
2023-03-15T11:07:08.894Z,25.40
2023-03-15T11:09:52.942Z,25.20
2023-03-15T11:12:31.628Z,26.30
2023-03-15T11:15:16.428Z,26.90
2023-03-15T11:17:52.826Z,26.60
2023-03-15T11:20:40.010Z,26.50
2023-03-15T11:23:25.805Z,27.00
2023-03-15T11:26:01.414Z,26.50
2023-03-15T11:28:37.618Z,25.80
2023-03-15T11:31:12.632Z,24.80
2023-03-15T11:34:13.659Z,25.00
2023-03-15T11:37:07.530Z,24.50
2023-03-15T11:40:11.573Z,24.40
2023-03-15T11:43:02.898Z,24.70
2023-03-15T11:45:52.786Z,24.30
2023-03-15T11:49:35.245Z,24.50
2023-03-15T11:52:10.854Z,24.60
2023-03-15T11:54:46.893Z,24.50
2023-03-15T11:57:43.454Z,25.00
2023-03-15T12:00:51.299Z,25.40
2023-03-15T12:03:41.167Z,25.80
2023-03-15T12:06:18.855Z,26.10
2023-03-15T12:08:55.503Z,26.10
2023-03-15T12:11:38.504Z,26.10
2023-03-15T12:14:28.974Z,26.50
2023-03-15T12:17:28.830Z,26.60
2023-03-15T12:20:34.760Z,26.90
2023-03-15T12:23:31.078Z,27.30
2023-03-15T12:26:12.596Z,27.00
2023-03-15T12:29:20.311Z,26.90
2023-03-15T12:32:03.615Z,26.90
2023-03-15T12:35:08.956Z,26.50
2023-03-15T12:37:47.118Z,26.40
2023-03-15T12:40:26.633Z,26.50
2023-03-15T12:43:02.379Z,26.90
2023-03-15T12:45:40.780Z,27.40
2023-03-15T12:48:22.178Z,28.30
2023-03-15T12:51:05.544Z,29.30
2023-03-15T12:53:46.132Z,29.40
2023-03-15T12:56:32.771Z,29.90
2023-03-15T12:59:29.161Z,30.10
2023-03-15T13:02:42.694Z,30.30
2023-03-15T13:05:28.947Z,30.70
2023-03-15T13:08:24.273Z,30.80
2023-03-15T13:11:38.510Z,31.10
2023-03-15T13:14:36.542Z,31.60
2023-03-15T13:17:57.664Z,32.10
2023-03-15T13:20:54.937Z,33.00
2023-03-15T13:23:34.224Z,33.30
2023-03-15T13:26:16.823Z,33.50
2023-03-15T13:29:01.666Z,32.90
2023-03-15T13:31:38.209Z,32.20
2023-03-15T13:34:22.047Z,31.90
2023-03-15T13:37:00.112Z,31.60
2023-03-15T13:39:35.391Z,32.50
2023-03-15T13:42:24.078Z,31.40
2023-03-15T13:45:17.286Z,31.40
2023-03-15T13:47:52.187Z,30.50
2023-03-15T13:50:27.138Z,30.20
2023-03-15T13:53:02.795Z,30.40
2023-03-15T13:55:37.843Z,30.60
2023-03-15T13:58:13.854Z,31.00
2023-03-15T14:00:49.128Z,34.60
2023-03-15T14:03:24.096Z,36.20
2023-03-15T14:05:59.246Z,39.50
2023-03-15T14:08:37.975Z,40.40
2023-03-15T14:11:25.080Z,42.80
2023-03-15T14:14:04.239Z,43.20
2023-03-15T14:17:03.129Z,44.70
2023-03-15T14:19:40.248Z,44.70
2023-03-15T14:22:19.307Z,46.10
2023-03-15T14:24:55.468Z,46.00
2023-03-15T14:27:31.065Z,43.90
2023-03-15T14:30:23.821Z,38.30
2023-03-15T14:33:03.605Z,36.00
2023-03-15T14:35:38.429Z,36.10
2023-03-15T14:38:22.766Z,36.00
2023-03-15T14:41:28.386Z,35.10
2023-03-15T14:44:03.299Z,33.40
2023-03-15T14:46:38.275Z,33.30
2023-03-15T14:49:39.647Z,33.10
2023-03-15T14:52:14.887Z,33.70
2023-03-15T14:54:50.571Z,34.70
2023-03-15T14:57:25.496Z,36.60
2023-03-15T15:00:01.349Z,38.80
2023-03-15T15:02:37.458Z,43.50
2023-03-15T15:05:27.872Z,49.10
2023-03-15T15:08:15.713Z,54.60
2023-03-15T15:10:53.954Z,57.40
2023-03-15T15:13:31.713Z,60.90
2023-03-15T15:16:07.652Z,62.50
2023-03-15T15:18:42.678Z,63.20
2023-03-15T15:21:28.008Z,62.30
2023-03-15T15:24:10.465Z,61.10
2023-03-15T15:26:45.575Z,61.30
2023-03-15T15:29:21.412Z,59.20
2023-03-15T15:31:56.408Z,58.00
2023-03-15T15:34:33.929Z,60.10
2023-03-15T15:37:12.703Z,63.80
2023-03-15T15:39:48.003Z,69.00
2023-03-15T15:42:22.946Z,72.30
2023-03-15T15:44:57.819Z,73.20
2023-03-15T15:47:32.702Z,75.30
2023-03-15T15:50:11.231Z,74.90
2023-03-15T15:52:52.581Z,76.10
2023-03-15T15:55:32.574Z,76.30
2023-03-15T15:58:11.842Z,76.40
2023-03-15T16:00:46.902Z,76.40
2023-03-15T16:03:22.040Z,76.80
2023-03-15T16:05:57.234Z,76.60
2023-03-15T16:08:38.138Z,74.70
2023-03-15T16:11:16.690Z,75.20
2023-03-15T16:13:53.987Z,74.50
2023-03-15T16:16:29.004Z,73.60
2023-03-15T16:19:03.886Z,74.40
2023-03-15T16:21:48.053Z,73.40
2023-03-15T16:24:30.144Z,72.60
2023-03-15T16:27:08.007Z,71.90
2023-03-15T16:29:47.532Z,71.60
2023-03-15T16:32:37.197Z,68.50
2023-03-15T16:35:18.635Z,67.20
2023-03-15T16:37:56.880Z,66.10
2023-03-15T16:40:35.554Z,65.80
2023-03-15T16:43:14.637Z,66.30
2023-03-15T16:45:50.866Z,66.80
2023-03-15T16:48:25.730Z,65.40
2023-03-15T16:51:00.634Z,66.50
2023-03-15T16:53:37.321Z,66.60
2023-03-15T16:56:13.980Z,65.20
2023-03-15T16:58:52.820Z,65.30
2023-03-15T17:01:27.805Z,65.20
2023-03-15T17:04:02.771Z,63.10
2023-03-15T17:06:37.885Z,62.20
2023-03-15T17:09:21.436Z,60.70
2023-03-15T17:11:56.375Z,59.70
2023-03-15T17:14:34.410Z,59.70
2023-03-15T17:17:09.986Z,57.60
2023-03-15T17:19:45.701Z,57.20
2023-03-15T17:22:21.457Z,57.80
2023-03-15T17:24:56.450Z,57.80
2023-03-15T17:27:42.049Z,57.20
2023-03-15T17:30:25.584Z,56.20
2023-03-15T17:33:01.183Z,57.70
2023-03-15T17:35:41.155Z,57.80
2023-03-15T17:38:24.369Z,58.30
2023-03-15T17:40:59.630Z,59.10
2023-03-15T17:43:34.602Z,59.50
2023-03-15T17:46:12.056Z,59.80
2023-03-15T17:48:48.597Z,60.10
2023-03-15T17:51:27.358Z,60.30
2023-03-15T17:54:02.705Z,61.40
2023-03-15T17:56:37.769Z,61.40
2023-03-15T17:59:13.312Z,61.40
2023-03-15T18:01:48.805Z,61.80
2023-03-15T18:04:25.079Z,62.40
2023-03-15T18:07:00.088Z,61.80
2023-03-15T18:09:34.978Z,62.30
2023-03-15T18:12:11.665Z,62.80
2023-03-15T18:14:47.736Z,63.40
2023-03-15T18:17:23.010Z,63.90
2023-03-15T18:19:57.991Z,64.40
2023-03-15T18:22:32.888Z,64.80
2023-03-15T18:25:20.605Z,65.20
2023-03-15T18:27:55.520Z,65.80
2023-03-15T18:30:31.996Z,66.10
2023-03-15T18:33:06.969Z,66.60
2023-03-15T18:35:42.166Z,67.00
2023-03-15T18:38:17.173Z,67.10
2023-03-15T18:40:52.215Z,67.50
2023-03-15T18:43:27.497Z,68.10
2023-03-15T18:46:02.467Z,68.50
2023-03-15T18:48:40.827Z,68.60
2023-03-15T18:51:17.515Z,69.10
2023-03-15T18:53:53.013Z,68.70
2023-03-15T18:56:34.262Z,68.70
2023-03-15T18:59:09.207Z,68.80
2023-03-15T19:01:45.148Z,68.80
2023-03-15T19:04:21.295Z,68.80
2023-03-15T19:06:56.302Z,69.00
2023-03-15T19:09:31.202Z,69.20
2023-03-15T19:12:06.713Z,69.10
2023-03-15T19:14:42.769Z,69.30
2023-03-15T19:17:18.634Z,69.40
2023-03-15T19:19:53.543Z,69.60
2023-03-15T19:22:31.077Z,69.70
2023-03-15T19:25:08.511Z,69.90
2023-03-15T19:27:44.403Z,70.20
2023-03-15T19:30:22.142Z,70.40
2023-03-15T19:32:57.205Z,71.10
2023-03-15T19:35:33.594Z,71.10
2023-03-15T19:38:09.197Z,71.40
2023-03-15T19:40:44.092Z,71.30
2023-03-15T19:43:19.862Z,71.00
2023-03-15T19:45:54.849Z,71.20
2023-03-15T19:48:29.980Z,71.10
2023-03-15T19:51:05.171Z,70.80
2023-03-15T19:53:40.052Z,71.00
2023-03-15T19:56:15.189Z,70.80
2023-03-15T19:58:50.132Z,70.70
2023-03-15T20:01:25.143Z,70.70
2023-03-15T20:04:00.306Z,70.90
2023-03-15T20:06:35.306Z,71.00
2023-03-15T20:09:11.896Z,71.40
2023-03-15T20:11:46.849Z,71.40
2023-03-15T20:14:22.663Z,71.50
2023-03-15T20:16:57.564Z,71.50
2023-03-15T20:19:32.713Z,71.60
2023-03-15T20:22:07.617Z,71.60
2023-03-15T20:24:44.224Z,71.60
2023-03-15T20:27:19.564Z,71.50
2023-03-15T20:29:56.634Z,71.40
2023-03-15T20:32:31.597Z,71.40
2023-03-15T20:35:09.327Z,71.50
2023-03-15T20:37:44.327Z,71.50
2023-03-15T20:40:20.119Z,71.50
2023-03-15T20:42:55.743Z,71.60
2023-03-15T20:45:33.266Z,71.70
2023-03-15T20:48:08.443Z,71.70
2023-03-15T20:50:43.436Z,71.50
2023-03-15T20:53:19.313Z,71.30
2023-03-15T20:55:54.375Z,71.40
2023-03-15T20:58:29.758Z,71.50
2023-03-15T21:01:13.037Z,71.50
2023-03-15T21:03:48.514Z,71.30
2023-03-15T21:06:23.891Z,71.50
2023-03-15T21:08:58.750Z,71.50
2023-03-15T21:11:33.851Z,71.40
2023-03-15T21:14:09.056Z,71.00
2023-03-15T21:16:43.965Z,70.70
2023-03-15T21:19:18.988Z,70.90
2023-03-15T21:21:53.912Z,70.70
2023-03-15T21:24:31.185Z,70.60
2023-03-15T21:27:07.004Z,70.60
2023-03-15T21:29:42.274Z,70.60
2023-03-15T21:32:17.171Z,70.60
2023-03-15T21:34:52.115Z,70.30
2023-03-15T21:37:27.128Z,70.40
2023-03-15T21:40:04.211Z,70.50
2023-03-15T21:42:39.683Z,70.70
2023-03-15T21:45:14.737Z,70.80
2023-03-15T21:47:49.717Z,70.80
2023-03-15T21:50:24.973Z,70.80
2023-03-15T21:53:00.036Z,70.80
2023-03-15T21:55:34.969Z,70.70
2023-03-15T21:58:09.883Z,70.60
2023-03-15T22:00:44.797Z,70.50
2023-03-15T22:03:19.741Z,70.80
2023-03-15T22:05:54.787Z,70.40
2023-03-15T22:08:29.852Z,70.30
2023-03-15T22:11:05.137Z,70.00
2023-03-15T22:13:41.672Z,69.80
2023-03-15T22:16:17.549Z,69.70
2023-03-15T22:18:52.486Z,69.70
2023-03-15T22:21:27.321Z,69.60
2023-03-15T22:24:02.266Z,69.50
2023-03-15T22:26:37.236Z,69.40
2023-03-15T22:29:12.477Z,69.60
2023-03-15T22:31:47.397Z,69.40
2023-03-15T22:34:22.315Z,69.20
2023-03-15T22:36:57.270Z,69.50
2023-03-15T22:39:34.079Z,69.30
2023-03-15T22:42:09.398Z,69.30
2023-03-15T22:44:44.275Z,69.30
2023-03-15T22:47:19.170Z,69.30
2023-03-15T22:49:55.390Z,69.20
2023-03-15T22:52:30.328Z,69.20
2023-03-15T22:55:07.588Z,69.20
2023-03-15T22:57:42.685Z,69.10
2023-03-15T23:00:21.695Z,69.10
2023-03-15T23:02:56.612Z,69.40
2023-03-15T23:05:31.535Z,69.70
2023-03-15T23:08:06.612Z,69.90
2023-03-15T23:10:42.485Z,70.10
2023-03-15T23:13:17.602Z,70.10
2023-03-15T23:15:52.686Z,69.80
2023-03-15T23:18:27.686Z,69.70
2023-03-15T23:21:12.600Z,69.60
2023-03-15T23:23:47.516Z,69.40
2023-03-15T23:26:25.289Z,69.20
2023-03-15T23:29:00.179Z,69.20
2023-03-15T23:31:35.086Z,69.20
2023-03-15T23:34:10.128Z,69.20
2023-03-15T23:36:45.459Z,69.10
2023-03-15T23:39:22.069Z,69.20
2023-03-15T23:41:57.978Z,69.20
2023-03-15T23:44:34.104Z,69.30
2023-03-15T23:47:09.202Z,69.30
2023-03-15T23:49:44.284Z,69.60
2023-03-15T23:52:19.273Z,69.70
2023-03-15T23:54:54.332Z,69.80
2023-03-15T23:57:29.300Z,69.90
